createdAt,value
2023-02-28T00:01:25.251Z,9.65
2023-02-28T00:03:53.321Z,9.65
2023-02-28T00:06:22.259Z,9.66
2023-02-28T00:08:50.228Z,9.65
2023-02-28T00:11:18.417Z,9.67
2023-02-28T00:13:48.298Z,9.68
2023-02-28T00:16:17.278Z,9.66
2023-02-28T00:18:48.427Z,9.69
2023-02-28T00:21:16.491Z,9.70
2023-02-28T00:23:44.848Z,9.69
2023-02-28T00:26:12.842Z,9.64
2023-02-28T00:28:40.798Z,9.58
2023-02-28T00:31:08.861Z,9.50
2023-02-28T00:33:36.846Z,9.51
2023-02-28T00:36:07.871Z,9.49
2023-02-28T00:38:35.877Z,9.49
2023-02-28T00:41:06.027Z,9.46
2023-02-28T00:43:34.830Z,9.44
2023-02-28T00:46:02.914Z,9.41
2023-02-28T00:48:30.909Z,9.42
2023-02-28T00:50:58.840Z,9.42
2023-02-28T00:53:28.180Z,9.39
2023-02-28T00:55:56.137Z,9.43
2023-02-28T00:58:24.085Z,9.41
2023-02-28T01:00:52.538Z,9.42
2023-02-28T01:03:20.475Z,9.40
2023-02-28T01:05:48.631Z,9.45
2023-02-28T01:08:16.626Z,9.46
2023-02-28T01:10:46.011Z,9.44
2023-02-28T01:13:14.040Z,9.46
2023-02-28T01:15:42.243Z,9.46
2023-02-28T01:18:10.154Z,9.44
2023-02-28T01:20:38.707Z,9.45
2023-02-28T01:23:06.626Z,9.42
2023-02-28T01:25:36.501Z,9.39
2023-02-28T01:28:06.708Z,9.40
2023-02-28T01:30:34.814Z,9.40
2023-02-28T01:33:02.739Z,9.45
2023-02-28T01:35:30.757Z,9.43
2023-02-28T01:38:06.835Z,9.43
2023-02-28T01:40:40.476Z,9.42
2023-02-28T01:43:13.274Z,9.41
2023-02-28T01:45:41.314Z,9.41
2023-02-28T01:48:09.902Z,9.40
2023-02-28T01:50:39.442Z,9.38
2023-02-28T01:53:08.780Z,9.39
2023-02-28T01:55:36.680Z,9.37
2023-02-28T01:58:05.575Z,9.22
2023-02-28T02:00:34.903Z,9.24
2023-02-28T02:03:05.587Z,9.12
2023-02-28T02:05:34.720Z,9.06
2023-02-28T02:08:05.454Z,8.99
2023-02-28T02:10:34.848Z,8.96
2023-02-28T02:13:36.480Z,8.90
2023-02-28T02:16:13.183Z,8.92
2023-02-28T02:18:43.216Z,8.89
2023-02-28T02:21:37.544Z,8.86
2023-02-28T02:24:38.659Z,8.75
2023-02-28T02:27:35.776Z,8.69
2023-02-28T02:30:32.394Z,8.66
2023-02-28T02:33:12.332Z,8.61
2023-02-28T02:35:43.023Z,8.55
2023-02-28T02:38:12.186Z,8.50
2023-02-28T02:40:43.366Z,8.45
2023-02-28T02:43:13.788Z,8.44
2023-02-28T02:45:44.143Z,8.43
2023-02-28T02:48:14.159Z,8.44
2023-02-28T02:50:46.476Z,8.45
2023-02-28T02:53:14.714Z,8.44
2023-02-28T02:55:43.690Z,8.38
2023-02-28T02:58:13.039Z,8.39
2023-02-28T03:00:43.236Z,8.37
2023-02-28T03:03:11.546Z,8.36
2023-02-28T03:05:44.042Z,8.35
2023-02-28T03:08:12.398Z,8.37
2023-02-28T03:10:41.028Z,8.43
2023-02-28T03:13:32.456Z,8.52
2023-02-28T03:16:06.150Z,8.63
2023-02-28T03:18:38.131Z,8.75
2023-02-28T03:21:10.482Z,8.80
2023-02-28T03:23:40.834Z,8.97
2023-02-28T03:26:10.077Z,8.96
2023-02-28T03:28:41.228Z,9.12
2023-02-28T03:31:11.375Z,9.19
2023-02-28T03:33:41.250Z,9.22
2023-02-28T03:36:13.448Z,9.22
2023-02-28T03:38:43.579Z,9.24
2023-02-28T03:41:13.773Z,9.14
2023-02-28T03:43:43.188Z,9.29
2023-02-28T03:46:12.076Z,9.34
2023-02-28T03:48:42.551Z,9.34
2023-02-28T03:51:12.834Z,9.42
2023-02-28T03:53:41.970Z,9.47
2023-02-28T03:56:11.874Z,9.39
2023-02-28T03:58:43.950Z,9.50
2023-02-28T04:01:12.778Z,9.51
2023-02-28T04:03:40.745Z,9.49
2023-02-28T04:06:09.524Z,9.52
2023-02-28T04:08:38.809Z,9.52
2023-02-28T04:11:08.306Z,9.47
2023-02-28T04:13:36.318Z,9.39
2023-02-28T04:16:18.702Z,9.32
2023-02-28T04:18:49.507Z,9.26
2023-02-28T04:21:21.641Z,9.18
2023-02-28T04:23:50.964Z,9.12
2023-02-28T04:26:18.891Z,9.04
2023-02-28T04:28:46.840Z,9.05
2023-02-28T04:31:14.798Z,9.05
2023-02-28T04:33:43.448Z,9.05
2023-02-28T04:36:11.478Z,9.06
2023-02-28T04:38:40.133Z,9.05
2023-02-28T04:41:09.394Z,9.04
2023-02-28T04:43:37.323Z,9.00
2023-02-28T04:46:06.030Z,8.94
2023-02-28T04:48:35.135Z,8.82
2023-02-28T04:51:03.091Z,8.72
2023-02-28T04:53:31.239Z,8.60
2023-02-28T04:55:59.259Z,8.36
2023-02-28T04:58:29.144Z,8.37
2023-02-28T05:00:57.267Z,8.32
2023-02-28T05:03:27.148Z,8.24
2023-02-28T05:05:55.923Z,8.16
2023-02-28T05:08:23.839Z,8.10
2023-02-28T05:10:51.781Z,8.06
2023-02-28T05:13:19.719Z,8.02
2023-02-28T05:15:49.073Z,7.98
2023-02-28T05:18:17.028Z,7.95
2023-02-28T05:20:44.952Z,7.90
2023-02-28T05:23:13.072Z,7.81
2023-02-28T05:25:41.065Z,7.77
2023-02-28T05:28:09.287Z,7.74
2023-02-28T05:30:37.218Z,7.69
2023-02-28T05:33:06.614Z,7.66
2023-02-28T05:35:34.549Z,7.63
2023-02-28T05:38:02.503Z,7.62
2023-02-28T05:40:30.416Z,7.64
2023-02-28T05:42:58.365Z,7.62
2023-02-28T05:45:26.291Z,7.61
2023-02-28T05:47:55.694Z,7.56
2023-02-28T05:50:25.018Z,7.49
2023-02-28T05:52:53.180Z,7.43
2023-02-28T05:55:21.291Z,7.29
2023-02-28T05:57:49.235Z,7.49
2023-02-28T06:00:18.825Z,7.63
2023-02-28T06:02:46.839Z,7.74
2023-02-28T06:05:15.775Z,7.83
2023-02-28T06:07:45.214Z,7.93
2023-02-28T06:10:13.401Z,8.05
2023-02-28T06:12:42.545Z,8.20
2023-02-28T06:15:13.599Z,8.32
2023-02-28T06:17:42.196Z,8.36
2023-02-28T06:20:11.673Z,8.33
2023-02-28T06:22:39.574Z,8.30
2023-02-28T06:25:09.808Z,8.30
2023-02-28T06:27:37.749Z,8.33
2023-02-28T06:30:06.406Z,8.41
2023-02-28T06:32:34.374Z,8.49
2023-02-28T06:35:02.337Z,8.52
2023-02-28T06:37:30.268Z,8.62
2023-02-28T06:39:58.333Z,8.69
2023-02-28T06:42:29.913Z,8.73
2023-02-28T06:44:58.108Z,8.78
2023-02-28T06:47:26.698Z,8.78
2023-02-28T06:49:54.708Z,8.82
2023-02-28T06:52:23.132Z,8.81
2023-02-28T06:55:00.654Z,8.86
2023-02-28T06:57:32.001Z,8.92
2023-02-28T07:00:00.619Z,8.96
2023-02-28T07:02:28.623Z,8.98
2023-02-28T07:04:56.632Z,9.08
2023-02-28T07:07:24.549Z,9.12
2023-02-28T07:09:52.511Z,9.15
2023-02-28T07:12:20.492Z,9.14
2023-02-28T07:14:49.886Z,9.13
2023-02-28T07:17:17.887Z,9.14
2023-02-28T07:19:45.986Z,9.14
2023-02-28T07:22:15.884Z,9.09
2023-02-28T07:24:43.992Z,9.18
2023-02-28T07:27:11.926Z,9.23
2023-02-28T07:29:39.915Z,9.26
2023-02-28T07:32:09.303Z,9.27
2023-02-28T07:34:37.338Z,9.29
2023-02-28T07:37:06.460Z,9.31
2023-02-28T07:39:34.379Z,9.41
2023-02-28T07:42:04.790Z,9.54
2023-02-28T07:44:32.727Z,9.65
2023-02-28T07:47:00.721Z,9.82
2023-02-28T07:49:30.081Z,9.90
2023-02-28T07:51:58.020Z,9.96
2023-02-28T07:54:25.986Z,10.02
2023-02-28T07:56:53.922Z,10.01
2023-02-28T07:59:21.857Z,10.22
2023-02-28T08:01:51.324Z,10.32
2023-02-28T08:04:19.386Z,10.44
2023-02-28T08:06:48.708Z,10.53
2023-02-28T08:09:16.716Z,10.64
2023-02-28T08:11:44.693Z,10.60
2023-02-28T08:14:12.625Z,10.75
2023-02-28T08:16:44.025Z,10.79
2023-02-28T08:19:11.977Z,10.85
2023-02-28T08:21:40.874Z,10.88
2023-02-28T08:24:10.614Z,10.95
2023-02-28T08:26:38.564Z,11.00
2023-02-28T08:29:06.622Z,11.01
2023-02-28T08:31:36.557Z,11.11
2023-02-28T08:34:07.684Z,11.09
2023-02-28T08:36:35.727Z,11.23
2023-02-28T08:39:03.877Z,11.29
2023-02-28T08:41:33.225Z,11.05
2023-02-28T08:44:01.196Z,11.44
2023-02-28T08:46:29.284Z,11.55
2023-02-28T08:49:00.364Z,11.68
2023-02-28T08:51:28.725Z,11.78
2023-02-28T08:53:57.250Z,11.87
2023-02-28T08:56:25.178Z,11.88
2023-02-28T08:58:56.212Z,11.89
2023-02-28T09:01:28.656Z,11.90
2023-02-28T09:06:30.418Z,12.08
2023-02-28T09:09:02.123Z,12.23
2023-02-28T09:11:30.159Z,12.32
2023-02-28T09:14:01.290Z,12.36
2023-02-28T09:16:29.329Z,12.42
2023-02-28T09:18:57.357Z,12.44
2023-02-28T09:21:25.319Z,12.48
2023-02-28T09:23:53.605Z,12.50
2023-02-28T09:26:23.290Z,12.53
2023-02-28T09:28:51.224Z,12.56
2023-02-28T09:31:22.728Z,12.55
2023-02-28T09:33:50.830Z,12.59
2023-02-28T09:36:18.899Z,12.62
2023-02-28T09:38:48.758Z,12.67
2023-02-28T09:41:18.350Z,12.76
2023-02-28T09:43:48.025Z,12.82
2023-02-28T09:46:34.306Z,12.93
2023-02-28T09:49:03.266Z,12.96
2023-02-28T09:51:40.096Z,12.96
2023-02-28T09:54:08.060Z,12.97
2023-02-28T09:56:38.734Z,13.03
2023-02-28T09:59:12.068Z,13.13
2023-02-28T10:01:44.186Z,13.22
2023-02-28T10:04:14.938Z,13.47
2023-02-28T10:06:45.948Z,13.52
2023-02-28T10:09:15.462Z,13.60
2023-02-28T10:11:43.808Z,13.62
2023-02-28T10:14:15.355Z,13.63
2023-02-28T10:16:47.511Z,13.77
2023-02-28T10:19:17.031Z,13.90
2023-02-28T10:21:46.323Z,14.00
2023-02-28T10:24:22.164Z,14.02
2023-02-28T10:26:50.123Z,14.19
2023-02-28T10:29:18.448Z,14.28
2023-02-28T10:31:47.823Z,14.31
2023-02-28T10:34:15.966Z,14.17
2023-02-28T10:36:45.118Z,14.06
2023-02-28T10:39:41.758Z,14.12
2023-02-28T10:42:21.603Z,14.23
2023-02-28T10:44:49.688Z,14.28
2023-02-28T10:47:19.813Z,14.42
2023-02-28T10:49:51.242Z,14.53
2023-02-28T10:52:38.451Z,14.79
2023-02-28T10:55:17.504Z,14.86
2023-02-28T10:57:45.489Z,14.96
2023-02-28T11:00:17.068Z,15.19
2023-02-28T11:02:47.534Z,15.42
2023-02-28T11:05:26.907Z,15.60
2023-02-28T11:07:55.025Z,15.73
2023-02-28T11:10:23.829Z,15.66
2023-02-28T11:12:53.360Z,15.26
2023-02-28T11:15:24.840Z,15.36
2023-02-28T11:17:57.426Z,15.45
2023-02-28T11:20:26.359Z,15.14
2023-02-28T11:22:54.248Z,15.23
2023-02-28T11:25:24.791Z,15.07
2023-02-28T11:27:53.316Z,14.96
2023-02-28T11:30:29.088Z,14.95
2023-02-28T11:32:58.348Z,15.06
2023-02-28T11:35:28.439Z,15.11
2023-02-28T11:37:56.397Z,15.32
2023-02-28T11:40:27.359Z,15.06
2023-02-28T11:43:00.092Z,15.52
2023-02-28T11:45:46.255Z,16.31
2023-02-28T11:48:19.806Z,16.85
2023-02-28T11:50:59.499Z,17.22
2023-02-28T11:53:46.562Z,17.28
2023-02-28T11:56:17.660Z,17.34
2023-02-28T11:58:50.459Z,17.36
2023-02-28T12:01:25.362Z,17.29
2023-02-28T12:04:00.509Z,17.11
2023-02-28T12:06:31.654Z,16.78
2023-02-28T12:09:30.038Z,16.47
2023-02-28T12:11:58.456Z,16.14
2023-02-28T12:14:52.512Z,15.88
2023-02-28T12:17:33.270Z,15.54
2023-02-28T12:20:10.003Z,15.33
2023-02-28T12:22:39.944Z,15.22
2023-02-28T12:25:42.028Z,15.23
2023-02-28T12:28:11.066Z,15.30
2023-02-28T12:30:39.581Z,15.57
2023-02-28T12:33:10.797Z,15.47
2023-02-28T12:35:43.426Z,15.59
2023-02-28T12:38:12.781Z,15.86
2023-02-28T12:40:47.141Z,16.01
2023-02-28T12:43:15.558Z,16.54
2023-02-28T12:45:45.468Z,17.24
2023-02-28T12:48:15.916Z,18.14
2023-02-28T12:50:45.224Z,19.16
2023-02-28T12:53:15.964Z,20.06
2023-02-28T12:55:45.219Z,20.87
2023-02-28T12:58:16.237Z,21.61
2023-02-28T13:00:51.538Z,22.12
2023-02-28T13:03:29.418Z,21.79
2023-02-28T13:06:29.892Z,21.31
2023-02-28T13:09:06.754Z,20.99
2023-02-28T13:11:37.079Z,20.65
2023-02-28T13:14:06.496Z,20.27
2023-02-28T13:16:57.918Z,19.83
2023-02-28T13:19:26.341Z,19.29
2023-02-28T13:21:55.828Z,18.85
2023-02-28T13:24:47.543Z,18.24
2023-02-28T13:27:37.805Z,17.78
2023-02-28T13:30:39.217Z,17.42
2023-02-28T13:33:29.217Z,17.00
2023-02-28T13:36:10.172Z,16.69
2023-02-28T13:38:43.817Z,16.57
2023-02-28T13:41:46.330Z,16.37
2023-02-28T13:44:15.194Z,16.04
2023-02-28T13:47:16.538Z,15.86
2023-02-28T13:49:44.472Z,15.74
2023-02-28T13:52:17.871Z,15.72
2023-02-28T13:54:56.962Z,15.58
2023-02-28T13:57:29.736Z,15.62
2023-02-28T14:00:06.542Z,15.56
2023-02-28T14:03:00.104Z,15.57
2023-02-28T14:05:34.734Z,15.51
2023-02-28T14:08:06.842Z,15.46
2023-02-28T14:10:37.798Z,15.48
2023-02-28T14:13:13.532Z,15.40
2023-02-28T14:15:59.895Z,15.73
2023-02-28T14:18:31.711Z,15.98
2023-02-28T14:21:02.366Z,16.01
2023-02-28T14:23:38.892Z,16.01
2023-02-28T14:26:12.840Z,16.17
2023-02-28T14:28:57.398Z,17.13
2023-02-28T14:31:26.133Z,18.04
2023-02-28T14:34:06.785Z,18.22
2023-02-28T14:36:35.209Z,18.34
2023-02-28T14:39:03.792Z,18.38
2023-02-28T14:41:36.386Z,18.37
2023-02-28T14:44:05.183Z,18.27
2023-02-28T14:46:37.744Z,17.98
2023-02-28T14:49:06.109Z,17.99
2023-02-28T14:51:33.981Z,17.67
2023-02-28T14:54:03.194Z,17.31
2023-02-28T14:56:36.350Z,17.28
2023-02-28T14:59:04.293Z,17.29
2023-02-28T15:01:33.035Z,17.44
2023-02-28T15:04:03.719Z,17.45
2023-02-28T15:06:31.646Z,17.24
2023-02-28T15:09:13.040Z,17.12
2023-02-28T15:11:42.810Z,16.82
2023-02-28T15:14:20.177Z,16.81
2023-02-28T15:16:48.835Z,16.74
2023-02-28T15:19:18.543Z,16.66
2023-02-28T15:21:49.656Z,16.63
2023-02-28T15:24:24.709Z,16.56
2023-02-28T15:26:56.161Z,16.24
2023-02-28T15:29:29.170Z,16.09
2023-02-28T15:31:59.062Z,15.90
2023-02-28T15:34:37.041Z,15.70
2023-02-28T15:37:29.430Z,15.72
2023-02-28T15:39:57.480Z,15.95
2023-02-28T15:42:30.127Z,16.16
2023-02-28T15:44:58.360Z,16.27
2023-02-28T15:47:30.401Z,16.33
2023-02-28T15:49:59.766Z,16.41
2023-02-28T15:52:32.737Z,16.39
2023-02-28T15:55:00.945Z,16.32
2023-02-28T15:57:30.758Z,16.12
2023-02-28T15:59:59.705Z,15.87
2023-02-28T16:02:33.173Z,15.63
2023-02-28T16:05:03.380Z,15.46
2023-02-28T16:07:31.371Z,15.36
2023-02-28T16:09:59.288Z,15.29
2023-02-28T16:12:29.076Z,15.22
2023-02-28T16:14:59.143Z,15.14
2023-02-28T16:17:27.946Z,15.05
2023-02-28T16:19:55.999Z,14.96
2023-02-28T16:22:23.906Z,14.83
2023-02-28T16:24:51.894Z,14.67
2023-02-28T16:27:21.249Z,14.49
2023-02-28T16:29:49.171Z,14.33
2023-02-28T16:32:18.646Z,14.42
2023-02-28T16:34:46.767Z,14.39
2023-02-28T16:37:15.369Z,14.44
2023-02-28T16:39:43.500Z,14.41
2023-02-28T16:42:17.911Z,14.33
2023-02-28T16:44:45.832Z,14.25
2023-02-28T16:47:13.951Z,14.14
2023-02-28T16:49:44.081Z,14.02
2023-02-28T16:52:12.787Z,13.93
2023-02-28T16:54:40.775Z,13.93
2023-02-28T16:57:09.010Z,13.90
2023-02-28T16:59:36.892Z,13.90
2023-02-28T17:02:10.969Z,13.86
2023-02-28T17:04:39.024Z,13.82
2023-02-28T17:07:10.712Z,13.77
2023-02-28T17:09:42.987Z,13.71
2023-02-28T17:12:12.765Z,13.62
2023-02-28T17:14:40.632Z,13.57
2023-02-28T17:17:08.738Z,13.51
2023-02-28T17:19:39.204Z,13.46
2023-02-28T17:22:10.266Z,13.40
2023-02-28T17:24:38.093Z,13.38
2023-02-28T17:27:06.376Z,13.33
2023-02-28T17:29:34.229Z,13.29
2023-02-28T17:32:12.185Z,13.22
2023-02-28T17:34:44.964Z,13.22
2023-02-28T17:37:14.282Z,13.21
2023-02-28T17:39:42.219Z,13.19
2023-02-28T17:42:10.173Z,13.22
2023-02-28T17:44:38.661Z,13.19
2023-02-28T17:47:06.612Z,13.17
2023-02-28T17:49:34.495Z,13.14
2023-02-28T17:52:02.421Z,13.06
2023-02-28T17:54:32.171Z,12.98
2023-02-28T17:57:00.081Z,12.93
2023-02-28T17:59:34.151Z,12.85
2023-02-28T18:02:02.252Z,12.80
2023-02-28T18:04:30.339Z,12.43
2023-02-28T18:07:00.979Z,12.69
2023-02-28T18:09:28.942Z,12.60
2023-02-28T18:11:58.268Z,12.50
2023-02-28T18:14:26.667Z,12.44
2023-02-28T18:16:54.895Z,12.42
2023-02-28T18:19:22.791Z,12.41
2023-02-28T18:21:51.934Z,12.44
2023-02-28T18:24:20.349Z,12.47
2023-02-28T18:26:48.207Z,12.50
2023-02-28T18:29:19.020Z,12.56
2023-02-28T18:31:47.074Z,12.41
2023-02-28T18:34:15.170Z,12.60
2023-02-28T18:36:43.389Z,12.62
2023-02-28T18:39:12.113Z,12.64
2023-02-28T18:41:40.098Z,12.68
2023-02-28T18:44:19.080Z,12.67
2023-02-28T18:46:49.057Z,12.67
2023-02-28T18:49:17.065Z,12.70
2023-02-28T18:51:45.518Z,12.71
2023-02-28T18:54:13.554Z,12.71
2023-02-28T18:56:41.514Z,12.72
2023-02-28T18:59:09.441Z,12.73
2023-02-28T19:01:37.302Z,12.70
2023-02-28T19:04:06.925Z,12.62
2023-02-28T19:06:35.116Z,12.49
2023-02-28T19:09:03.856Z,12.50
2023-02-28T19:11:32.194Z,12.44
2023-02-28T19:14:00.113Z,12.40
2023-02-28T19:16:28.854Z,12.36
2023-02-28T19:18:57.475Z,12.29
2023-02-28T19:21:27.187Z,12.22
2023-02-28T19:23:55.077Z,12.13
2023-02-28T19:26:24.161Z,11.96
2023-02-28T19:28:52.037Z,11.90
2023-02-28T19:31:20.906Z,11.90
2023-02-28T19:33:48.875Z,11.84
2023-02-28T19:36:16.786Z,11.74
2023-02-28T19:38:46.214Z,11.77
2023-02-28T19:41:14.712Z,11.74
2023-02-28T19:43:42.697Z,11.68
2023-02-28T19:46:12.111Z,11.66
2023-02-28T19:48:40.318Z,11.64
2023-02-28T19:51:09.713Z,11.63
2023-02-28T19:53:38.604Z,11.60
2023-02-28T19:56:08.753Z,11.40
2023-02-28T19:58:36.896Z,11.54
2023-02-28T20:01:08.625Z,11.37
2023-02-28T20:03:36.557Z,11.51
2023-02-28T20:06:05.304Z,11.55
2023-02-28T20:08:33.213Z,11.59
2023-02-28T20:11:04.136Z,11.62
2023-02-28T20:13:33.505Z,11.69
2023-02-28T20:16:02.034Z,11.73
2023-02-28T20:18:29.986Z,11.86
2023-02-28T20:20:57.875Z,11.91
2023-02-28T20:23:25.795Z,11.96
2023-02-28T20:25:53.614Z,11.97
2023-02-28T20:28:21.460Z,11.97
2023-02-28T20:30:50.718Z,11.94
2023-02-28T20:33:18.723Z,11.93
2023-02-28T20:35:46.648Z,11.91
2023-02-28T20:38:14.565Z,11.84
2023-02-28T20:40:42.434Z,11.85
2023-02-28T20:43:10.305Z,11.81
2023-02-28T20:45:38.167Z,11.81
2023-02-28T20:48:07.678Z,11.79
2023-02-28T20:50:35.585Z,11.75
2023-02-28T20:53:03.437Z,11.72
2023-02-28T20:55:31.299Z,11.74
2023-02-28T20:57:59.234Z,11.76
2023-02-28T21:00:27.098Z,11.77
2023-02-28T21:02:54.988Z,11.82
2023-02-28T21:05:24.387Z,11.86
2023-02-28T21:07:52.234Z,11.90
2023-02-28T21:10:20.269Z,11.94
2023-02-28T21:12:53.557Z,11.95
2023-02-28T21:15:22.812Z,11.95
2023-02-28T21:17:50.667Z,11.96
2023-02-28T21:20:22.250Z,11.96
2023-02-28T21:22:52.744Z,11.92
2023-02-28T21:25:21.533Z,11.90
2023-02-28T21:27:49.467Z,11.87
2023-02-28T21:30:17.397Z,11.83
2023-02-28T21:32:45.283Z,11.83
2023-02-28T21:35:13.172Z,11.82
2023-02-28T21:37:41.046Z,11.83
2023-02-28T21:40:11.984Z,11.85
2023-02-28T21:42:39.842Z,11.89
2023-02-28T21:45:08.664Z,11.92
2023-02-28T21:47:36.539Z,11.95
2023-02-28T21:50:04.509Z,11.95
2023-02-28T21:52:32.360Z,11.96
2023-02-28T21:55:00.293Z,11.97
2023-02-28T21:57:29.569Z,11.99
2023-02-28T21:59:57.571Z,12.03
2023-02-28T22:02:25.972Z,12.05
2023-02-28T22:04:53.970Z,12.08
2023-02-28T22:07:21.835Z,12.11
2023-02-28T22:09:49.812Z,12.12
2023-02-28T22:12:17.695Z,12.14
2023-02-28T22:14:46.972Z,12.16
2023-02-28T22:17:14.811Z,12.17
2023-02-28T22:19:42.910Z,12.19
2023-02-28T22:22:10.769Z,12.19
2023-02-28T22:24:38.717Z,12.18
2023-02-28T22:27:06.758Z,12.15
2023-02-28T22:29:34.611Z,12.12
2023-02-28T22:32:03.910Z,12.10
2023-02-28T22:34:31.895Z,12.08
2023-02-28T22:36:59.774Z,12.00
2023-02-28T22:39:27.648Z,11.97
2023-02-28T22:41:56.159Z,11.97
2023-02-28T22:44:24.054Z,11.96
2023-02-28T22:46:53.820Z,11.96
2023-02-28T22:49:23.121Z,11.98
2023-02-28T22:51:50.971Z,12.01
2023-02-28T22:54:18.816Z,12.04
2023-02-28T22:56:46.692Z,12.09
2023-02-28T22:59:14.947Z,12.13
2023-02-28T23:01:44.654Z,12.15
2023-02-28T23:04:13.027Z,12.16
2023-02-28T23:06:43.104Z,12.19
2023-02-28T23:09:14.504Z,12.19
2023-02-28T23:11:43.779Z,12.21
2023-02-28T23:14:12.816Z,12.21
2023-02-28T23:16:41.844Z,12.22
2023-02-28T23:19:10.819Z,12.22
2023-02-28T23:21:38.725Z,12.24
2023-02-28T23:24:10.667Z,12.22
2023-02-28T23:26:39.426Z,12.22
2023-02-28T23:29:07.300Z,12.21
2023-02-28T23:31:35.165Z,12.21
2023-02-28T23:34:03.032Z,12.23
2023-02-28T23:36:31.227Z,12.22
2023-02-28T23:38:59.257Z,12.22
2023-02-28T23:41:28.573Z,12.23
2023-02-28T23:43:56.749Z,12.23
2023-02-28T23:46:24.624Z,12.20
2023-02-28T23:48:52.516Z,12.19
2023-02-28T23:51:21.457Z,12.20
2023-02-28T23:53:50.246Z,12.17
2023-02-28T23:56:19.036Z,12.20
2023-02-28T23:58:48.563Z,12.19
